createdAt,value
2017-12-27T00:00:53.845Z,988.01
2017-12-27T00:01:53.792Z,987.96
2017-12-27T00:02:53.734Z,987.95
2017-12-27T00:03:53.677Z,987.91
2017-12-27T00:04:53.622Z,987.85
2017-12-27T00:05:53.567Z,987.83
2017-12-27T00:06:53.511Z,987.82
2017-12-27T00:07:53.458Z,987.81
2017-12-27T00:08:53.401Z,987.75
2017-12-27T00:09:53.342Z,987.71
2017-12-27T00:10:53.285Z,987.71
2017-12-27T00:11:53.229Z,987.64
2017-12-27T00:12:53.173Z,987.61
2017-12-27T00:13:53.117Z,987.57
2017-12-27T00:14:53.062Z,987.56
2017-12-27T00:15:53.005Z,987.54
2017-12-27T00:16:52.948Z,987.55
2017-12-27T00:17:52.894Z,987.54
2017-12-27T00:18:52.836Z,987.51
2017-12-27T00:19:52.780Z,987.50
2017-12-27T00:20:52.724Z,987.50
2017-12-27T00:21:52.668Z,987.48
2017-12-27T00:22:52.613Z,987.43
2017-12-27T00:23:52.556Z,987.41
2017-12-27T00:24:52.500Z,987.41
2017-12-27T00:25:52.443Z,987.41
2017-12-27T00:26:52.388Z,987.38
2017-12-27T00:27:52.331Z,987.37
2017-12-27T00:28:52.275Z,987.33
2017-12-27T00:29:52.221Z,987.29
2017-12-27T00:30:52.164Z,987.26
2017-12-27T00:31:52.107Z,987.23
2017-12-27T00:32:52.051Z,987.29
2017-12-27T00:33:51.995Z,987.24
2017-12-27T00:34:51.939Z,987.24
2017-12-27T00:35:51.882Z,987.22
2017-12-27T00:36:51.828Z,987.21
2017-12-27T00:37:51.771Z,987.18
2017-12-27T00:38:51.714Z,987.17
2017-12-27T00:39:51.659Z,987.16
2017-12-27T00:40:51.602Z,987.15
2017-12-27T00:41:51.547Z,987.12
2017-12-27T00:42:51.492Z,987.09
2017-12-27T00:43:51.434Z,987.08
2017-12-27T00:44:51.380Z,987.09
2017-12-27T00:45:51.322Z,987.06
2017-12-27T00:46:51.266Z,986.99
2017-12-27T00:47:51.209Z,986.91
2017-12-27T00:48:51.153Z,986.84
2017-12-27T00:49:51.098Z,986.83
2017-12-27T00:50:51.042Z,986.79
2017-12-27T00:51:50.986Z,986.73
2017-12-27T00:52:50.930Z,986.64
2017-12-27T00:53:50.874Z,986.55
2017-12-27T00:54:50.817Z,986.49
2017-12-27T00:55:50.760Z,986.52
2017-12-27T00:56:50.705Z,986.52
2017-12-27T00:57:50.648Z,986.50
2017-12-27T00:58:50.593Z,986.50
2017-12-27T00:59:50.536Z,986.43
2017-12-27T01:00:50.480Z,986.40
2017-12-27T01:01:50.425Z,986.38
2017-12-27T01:02:50.368Z,986.34
2017-12-27T01:03:50.312Z,986.31
2017-12-27T01:04:50.257Z,986.34
2017-12-27T01:05:50.201Z,986.32
2017-12-27T01:06:50.143Z,986.29
2017-12-27T01:07:50.087Z,986.25
2017-12-27T01:08:50.032Z,986.23
2017-12-27T01:09:49.975Z,986.24
2017-12-27T01:10:49.920Z,986.20
2017-12-27T01:11:49.862Z,986.16
2017-12-27T01:12:49.807Z,986.16
2017-12-27T01:13:49.751Z,986.16
2017-12-27T01:14:49.696Z,986.14
2017-12-27T01:15:49.638Z,986.10
2017-12-27T01:16:49.582Z,986.12
2017-12-27T01:17:49.530Z,986.17
2017-12-27T01:18:49.471Z,986.16
2017-12-27T01:19:49.413Z,986.16
2017-12-27T01:20:49.358Z,986.14
2017-12-27T01:21:49.302Z,986.07
2017-12-27T01:22:49.245Z,986.05
2017-12-27T01:23:49.189Z,986.01
2017-12-27T01:24:49.133Z,985.99
2017-12-27T01:25:49.078Z,985.94
2017-12-27T01:26:49.023Z,985.85
2017-12-27T01:27:48.966Z,985.84
2017-12-27T01:28:48.910Z,985.81
2017-12-27T01:29:48.853Z,985.85
2017-12-27T01:30:48.796Z,985.88
2017-12-27T01:31:48.740Z,985.86
2017-12-27T01:32:48.684Z,985.84
2017-12-27T01:33:48.628Z,985.87
2017-12-27T01:34:48.572Z,985.88
2017-12-27T01:35:48.515Z,985.83
2017-12-27T01:36:48.459Z,985.72
2017-12-27T01:37:48.404Z,985.72
2017-12-27T01:38:48.349Z,985.70
2017-12-27T01:39:48.292Z,985.68
2017-12-27T01:40:48.235Z,985.67
2017-12-27T01:41:48.179Z,985.67
2017-12-27T01:42:48.123Z,985.57
2017-12-27T01:43:48.066Z,985.57
2017-12-27T01:44:48.012Z,985.53
2017-12-27T01:45:47.954Z,985.48
2017-12-27T01:46:47.899Z,985.39
2017-12-27T01:47:47.842Z,985.36
2017-12-27T01:48:47.786Z,985.44
2017-12-27T01:49:47.730Z,985.46
2017-12-27T01:50:47.676Z,985.41
2017-12-27T01:51:47.618Z,985.46
2017-12-27T01:52:47.561Z,985.48
2017-12-27T01:53:47.506Z,985.49
2017-12-27T01:54:47.454Z,985.50
2017-12-27T01:55:47.393Z,985.50
2017-12-27T01:56:47.337Z,985.51
2017-12-27T01:57:47.280Z,985.52
2017-12-27T01:58:47.225Z,985.51
2017-12-27T01:59:47.168Z,985.46
2017-12-27T02:00:47.113Z,985.42
2017-12-27T02:01:47.058Z,985.45
2017-12-27T02:02:47.001Z,985.41
2017-12-27T02:03:46.945Z,985.35
2017-12-27T02:04:46.888Z,985.31
2017-12-27T02:05:46.832Z,985.26
2017-12-27T02:06:46.777Z,985.23
2017-12-27T02:07:46.719Z,985.18
2017-12-27T02:08:46.664Z,985.08
2017-12-27T02:09:46.608Z,984.97
2017-12-27T02:10:46.551Z,984.90
2017-12-27T02:11:46.494Z,984.82
2017-12-27T02:12:46.440Z,984.81
2017-12-27T02:13:46.382Z,984.82
2017-12-27T02:14:46.327Z,984.81
2017-12-27T02:15:46.271Z,984.76
2017-12-27T02:16:46.214Z,984.69
2017-12-27T02:17:46.158Z,984.63
2017-12-27T02:18:46.102Z,984.52
2017-12-27T02:19:46.045Z,984.53
2017-12-27T02:20:45.990Z,984.51
2017-12-27T02:21:45.934Z,984.48
2017-12-27T02:22:45.878Z,984.43
2017-12-27T02:23:45.821Z,984.35
2017-12-27T02:24:45.764Z,984.40
2017-12-27T02:25:45.709Z,984.46
2017-12-27T02:26:45.654Z,984.36
2017-12-27T02:27:45.596Z,984.34
2017-12-27T02:28:45.541Z,984.30
2017-12-27T02:29:45.484Z,984.27
2017-12-27T02:30:45.430Z,984.19
2017-12-27T02:31:45.371Z,984.14
2017-12-27T02:32:45.315Z,984.07
2017-12-27T02:33:45.263Z,984.01
2017-12-27T02:34:45.203Z,983.99
2017-12-27T02:35:45.147Z,983.95
2017-12-27T02:36:45.091Z,983.94
2017-12-27T02:37:45.037Z,983.90
2017-12-27T02:38:44.979Z,983.91
2017-12-27T02:39:44.923Z,983.89
2017-12-27T02:40:44.866Z,983.81
2017-12-27T02:41:44.810Z,983.79
2017-12-27T02:42:44.754Z,983.76
2017-12-27T02:43:44.900Z,983.76
2017-12-27T02:44:44.642Z,983.73
2017-12-27T02:45:44.585Z,983.66
2017-12-27T02:46:44.529Z,983.62
2017-12-27T02:47:44.474Z,983.60
2017-12-27T02:48:44.418Z,983.52
2017-12-27T02:49:44.361Z,983.49
2017-12-27T02:50:44.305Z,983.50
2017-12-27T02:51:44.250Z,983.42
2017-12-27T02:52:44.194Z,983.38
2017-12-27T02:53:44.136Z,983.33
2017-12-27T02:54:44.082Z,983.27
2017-12-27T02:55:44.024Z,983.19
2017-12-27T02:56:43.968Z,983.15
2017-12-27T02:57:43.911Z,983.10
2017-12-27T02:58:43.856Z,983.07
2017-12-27T02:59:43.799Z,983.05
2017-12-27T03:00:43.743Z,983.01
2017-12-27T03:01:43.687Z,982.99
2017-12-27T03:02:43.631Z,982.91
2017-12-27T03:03:43.574Z,982.84
2017-12-27T03:04:43.519Z,982.83
2017-12-27T03:05:43.462Z,982.78
2017-12-27T03:06:43.406Z,982.86
2017-12-27T03:07:43.350Z,982.83
2017-12-27T03:08:43.294Z,982.85
2017-12-27T03:09:43.239Z,982.81
2017-12-27T03:10:43.182Z,982.77
2017-12-27T03:11:43.124Z,982.75
2017-12-27T03:12:43.068Z,982.75
2017-12-27T03:13:43.014Z,982.76
2017-12-27T03:14:42.958Z,982.77
2017-12-27T03:15:42.900Z,982.72
2017-12-27T03:16:42.845Z,982.74
2017-12-27T03:17:42.788Z,982.76
2017-12-27T03:18:42.732Z,982.71
2017-12-27T03:19:42.676Z,982.72
2017-12-27T03:20:42.621Z,982.74
2017-12-27T03:21:42.563Z,982.71
2017-12-27T03:22:42.510Z,982.65
2017-12-27T03:23:42.452Z,982.63
2017-12-27T03:24:42.396Z,982.55
2017-12-27T03:25:42.339Z,982.48
2017-12-27T03:26:42.283Z,982.46
2017-12-27T03:27:42.225Z,982.47
2017-12-27T03:28:42.169Z,982.38
2017-12-27T03:29:42.116Z,982.37
2017-12-27T03:30:42.059Z,982.40
2017-12-27T03:31:42.002Z,982.34
2017-12-27T03:32:41.946Z,982.30
2017-12-27T03:33:41.889Z,982.27
2017-12-27T03:34:41.833Z,982.28
2017-12-27T03:35:41.777Z,982.29
2017-12-27T03:36:41.721Z,982.19
2017-12-27T03:37:41.666Z,982.14
2017-12-27T03:38:41.609Z,982.10
2017-12-27T03:39:41.550Z,982.13
2017-12-27T03:40:41.499Z,982.12
2017-12-27T03:41:41.440Z,982.15
2017-12-27T03:42:41.384Z,982.16
2017-12-27T03:43:41.331Z,982.18
2017-12-27T03:44:41.271Z,982.21
2017-12-27T03:45:41.216Z,982.20
2017-12-27T03:46:41.159Z,982.21
2017-12-27T03:47:41.103Z,982.26
2017-12-27T03:48:41.053Z,982.30
2017-12-27T03:49:40.993Z,982.20
2017-12-27T03:50:40.935Z,982.16
2017-12-27T03:51:40.878Z,982.13
2017-12-27T03:52:40.826Z,982.04
2017-12-27T03:53:40.766Z,982.04
2017-12-27T03:54:40.709Z,982.04
2017-12-27T03:55:40.653Z,982.03
2017-12-27T03:56:40.597Z,982.00
2017-12-27T03:57:40.541Z,982.00
2017-12-27T03:58:40.485Z,982.03
2017-12-27T03:59:40.428Z,982.00
2017-12-27T04:00:40.373Z,982.05
2017-12-27T04:01:40.316Z,982.03
2017-12-27T04:02:40.261Z,982.00
2017-12-27T04:03:40.204Z,981.98
2017-12-27T04:04:40.148Z,981.94
2017-12-27T04:05:40.092Z,981.97
2017-12-27T04:06:40.037Z,981.93
2017-12-27T04:07:39.979Z,981.93
2017-12-27T04:08:39.922Z,981.92
2017-12-27T04:09:39.867Z,981.93
2017-12-27T04:10:39.811Z,981.90
2017-12-27T04:11:39.753Z,981.92
2017-12-27T04:12:39.699Z,981.83
2017-12-27T04:13:39.643Z,981.78
2017-12-27T04:14:39.587Z,981.73
2017-12-27T04:15:39.529Z,981.76
2017-12-27T04:16:39.473Z,981.71
2017-12-27T04:17:39.417Z,981.51
2017-12-27T04:18:39.361Z,981.53
2017-12-27T04:19:39.303Z,981.44
2017-12-27T04:20:39.250Z,981.44
2017-12-27T04:21:39.192Z,981.41
2017-12-27T04:22:39.136Z,981.44
2017-12-27T04:23:39.080Z,981.35
2017-12-27T04:24:39.024Z,981.25
2017-12-27T04:25:38.968Z,981.29
2017-12-27T04:26:38.913Z,981.33
2017-12-27T04:27:38.854Z,981.48
2017-12-27T04:28:38.798Z,981.47
2017-12-27T04:29:38.743Z,981.42
2017-12-27T04:30:38.686Z,981.40
2017-12-27T04:31:38.629Z,981.46
2017-12-27T04:32:38.574Z,981.52
2017-12-27T04:33:38.519Z,981.47
2017-12-27T04:34:38.462Z,981.44
2017-12-27T04:35:38.405Z,981.39
2017-12-27T04:36:38.350Z,981.43
2017-12-27T04:37:38.294Z,981.40
2017-12-27T04:38:38.237Z,981.42
2017-12-27T04:39:38.180Z,981.48
2017-12-27T04:40:38.124Z,981.44
2017-12-27T04:41:38.068Z,981.47
2017-12-27T04:42:38.012Z,981.46
2017-12-27T04:43:37.955Z,981.46
2017-12-27T04:44:37.910Z,981.42
2017-12-27T04:45:37.843Z,981.29
2017-12-27T04:46:37.788Z,981.38
2017-12-27T04:47:37.731Z,981.43
2017-12-27T04:48:37.674Z,981.35
2017-12-27T04:49:37.622Z,981.38
2017-12-27T04:50:37.563Z,981.32
2017-12-27T04:51:37.507Z,981.30
2017-12-27T04:52:37.450Z,981.26
2017-12-27T04:53:37.397Z,981.24
2017-12-27T04:54:37.337Z,981.28
2017-12-27T04:55:37.281Z,981.38
2017-12-27T04:56:37.225Z,981.57
2017-12-27T04:57:37.168Z,981.50
2017-12-27T04:58:37.116Z,981.40
2017-12-27T04:59:37.055Z,981.35
2017-12-27T05:00:37.002Z,981.26
2017-12-27T05:01:36.944Z,981.30
2017-12-27T05:02:36.889Z,981.20
2017-12-27T05:03:36.834Z,981.20
2017-12-27T05:04:36.775Z,981.25
2017-12-27T05:05:36.723Z,981.26
2017-12-27T05:06:36.664Z,981.33
2017-12-27T05:07:36.606Z,981.31
2017-12-27T05:08:36.551Z,981.30
2017-12-27T05:09:36.494Z,981.29
2017-12-27T05:10:36.438Z,981.29
2017-12-27T05:11:36.381Z,981.25
2017-12-27T05:12:36.325Z,981.18
2017-12-27T05:13:36.269Z,981.16
2017-12-27T05:14:36.214Z,981.12
2017-12-27T05:15:36.161Z,981.08
2017-12-27T05:16:36.099Z,981.09
2017-12-27T05:17:36.044Z,981.18
2017-12-27T05:18:35.987Z,981.17
2017-12-27T05:19:35.932Z,981.12
2017-12-27T05:20:35.880Z,981.12
2017-12-27T05:21:35.820Z,981.09
2017-12-27T05:22:35.765Z,981.08
2017-12-27T05:23:35.707Z,981.01
2017-12-27T05:24:35.651Z,981.05
2017-12-27T05:25:35.601Z,981.07
2017-12-27T05:26:35.542Z,981.06
2017-12-27T05:27:35.488Z,981.03
2017-12-27T05:28:35.427Z,981.02
2017-12-27T05:29:35.374Z,981.02
2017-12-27T05:30:35.315Z,980.95
2017-12-27T05:31:35.258Z,980.99
2017-12-27T05:32:35.202Z,980.95
2017-12-27T05:33:35.146Z,980.94
2017-12-27T05:34:35.090Z,980.98
2017-12-27T05:35:35.034Z,981.00
2017-12-27T05:36:34.978Z,980.95
2017-12-27T05:37:34.922Z,980.99
2017-12-27T05:38:34.867Z,980.99
2017-12-27T05:39:34.809Z,980.97
2017-12-27T05:40:34.786Z,980.95
2017-12-27T05:41:34.698Z,980.85
2017-12-27T05:42:34.643Z,980.91
2017-12-27T05:43:34.585Z,980.86
2017-12-27T05:44:34.531Z,980.84
2017-12-27T05:45:34.475Z,980.82
2017-12-27T05:46:34.445Z,980.86
2017-12-27T05:47:34.363Z,980.87
2017-12-27T05:48:34.306Z,980.87
2017-12-27T05:49:34.251Z,980.92
2017-12-27T05:50:34.195Z,980.86
2017-12-27T05:51:34.138Z,980.82
2017-12-27T05:52:34.083Z,980.79
2017-12-27T05:53:34.026Z,980.81
2017-12-27T05:54:33.970Z,980.81
2017-12-27T05:55:33.914Z,980.80
2017-12-27T05:56:33.860Z,980.77
2017-12-27T05:57:33.804Z,980.79
2017-12-27T05:58:33.751Z,980.78
2017-12-27T05:59:33.691Z,980.78
2017-12-27T06:00:33.673Z,980.74
2017-12-27T06:01:33.580Z,980.69
2017-12-27T06:02:33.523Z,980.64
2017-12-27T06:03:33.468Z,980.72
2017-12-27T06:04:33.412Z,980.74
2017-12-27T06:05:33.356Z,980.70
2017-12-27T06:06:33.301Z,980.75
2017-12-27T06:07:33.245Z,980.74
2017-12-27T06:08:33.188Z,980.75
2017-12-27T06:09:33.133Z,980.76
2017-12-27T06:10:33.077Z,980.71
2017-12-27T06:11:33.020Z,980.76
2017-12-27T06:12:32.965Z,980.68
2017-12-27T06:13:32.911Z,980.70
2017-12-27T06:14:32.853Z,980.71
2017-12-27T06:15:32.796Z,980.71
2017-12-27T06:16:32.740Z,980.65
2017-12-27T06:17:32.692Z,980.64
2017-12-27T06:18:32.629Z,980.64
2017-12-27T06:19:32.572Z,980.62
2017-12-27T06:20:32.519Z,980.60
2017-12-27T06:21:32.462Z,980.58
2017-12-27T06:22:32.406Z,980.59
2017-12-27T06:23:32.349Z,980.65
2017-12-27T06:24:32.294Z,980.59
2017-12-27T06:25:32.238Z,980.58
2017-12-27T06:26:32.182Z,980.54
2017-12-27T06:27:32.127Z,980.54
2017-12-27T06:28:32.072Z,980.50
2017-12-27T06:29:32.015Z,980.46
2017-12-27T06:30:31.958Z,980.46
2017-12-27T06:31:31.902Z,980.44
2017-12-27T06:32:31.847Z,980.40
2017-12-27T06:33:31.790Z,980.43
2017-12-27T06:34:31.735Z,980.45
2017-12-27T06:35:31.680Z,980.43
2017-12-27T06:36:31.622Z,980.44
2017-12-27T06:37:31.567Z,980.40
2017-12-27T06:38:31.511Z,980.41
2017-12-27T06:39:31.455Z,980.44
2017-12-27T06:40:31.402Z,980.46
2017-12-27T06:41:31.343Z,980.44
2017-12-27T06:42:31.289Z,980.37
2017-12-27T06:43:31.231Z,980.35
2017-12-27T06:44:31.176Z,980.29
2017-12-27T06:45:31.119Z,980.34
2017-12-27T06:46:31.065Z,980.28
2017-12-27T06:47:31.007Z,980.26
2017-12-27T06:48:30.952Z,980.26
2017-12-27T06:49:30.900Z,980.25
2017-12-27T06:50:30.841Z,980.23
2017-12-27T06:51:30.788Z,980.27
2017-12-27T06:52:30.740Z,980.28
2017-12-27T06:53:30.672Z,980.24
2017-12-27T06:54:30.617Z,980.25
2017-12-27T06:55:30.560Z,980.23
2017-12-27T06:56:30.503Z,980.24
2017-12-27T06:57:30.450Z,980.27
2017-12-27T06:58:30.393Z,980.18
2017-12-27T06:59:30.336Z,980.18
2017-12-27T07:00:30.282Z,980.21
2017-12-27T07:01:30.225Z,980.19
2017-12-27T07:02:30.234Z,980.18
2017-12-27T07:03:30.113Z,980.15
2017-12-27T07:04:30.057Z,980.17
2017-12-27T07:05:30.001Z,980.18
2017-12-27T07:06:29.945Z,980.17
2017-12-27T07:07:29.889Z,980.17
2017-12-27T07:08:29.834Z,980.14
2017-12-27T07:09:29.778Z,980.17
2017-12-27T07:10:29.721Z,980.15
2017-12-27T07:11:29.665Z,980.13
2017-12-27T07:12:29.609Z,980.14
2017-12-27T07:13:29.553Z,980.16
2017-12-27T07:14:29.497Z,980.15
2017-12-27T07:15:29.440Z,980.14
2017-12-27T07:16:29.387Z,980.09
2017-12-27T07:17:29.329Z,980.09
2017-12-27T07:18:29.274Z,980.11
2017-12-27T07:19:29.217Z,980.12
2017-12-27T07:20:29.166Z,980.13
2017-12-27T07:21:29.147Z,980.07
2017-12-27T07:22:29.051Z,980.08
2017-12-27T07:23:29.039Z,980.06
2017-12-27T07:24:28.938Z,980.08
2017-12-27T07:25:28.881Z,980.04
2017-12-27T07:26:28.825Z,980.04
2017-12-27T07:27:28.770Z,980.03
2017-12-27T07:28:28.785Z,980.03
2017-12-27T07:29:28.713Z,980.05
2017-12-27T07:30:28.602Z,980.00
2017-12-27T07:31:28.545Z,980.03
2017-12-27T07:32:28.489Z,979.98
2017-12-27T07:33:28.434Z,979.97
2017-12-27T07:34:28.377Z,980.01
2017-12-27T07:35:28.320Z,979.96
2017-12-27T07:36:28.265Z,980.01
2017-12-27T07:37:28.210Z,980.02
2017-12-27T07:38:28.157Z,980.01
2017-12-27T07:39:28.097Z,980.00
2017-12-27T07:40:28.042Z,980.04
2017-12-27T07:41:27.985Z,979.97
2017-12-27T07:42:27.930Z,979.94
2017-12-27T07:43:27.873Z,979.89
2017-12-27T07:44:27.817Z,979.86
2017-12-27T07:45:27.761Z,979.84
2017-12-27T07:46:27.704Z,979.83
2017-12-27T07:47:27.648Z,979.83
2017-12-27T07:48:27.598Z,979.80
2017-12-27T07:49:27.537Z,979.77
2017-12-27T07:50:27.481Z,979.77
2017-12-27T07:51:27.424Z,979.71
2017-12-27T07:52:27.369Z,979.73
2017-12-27T07:53:27.313Z,979.69
2017-12-27T07:54:27.257Z,979.62
2017-12-27T07:55:27.206Z,979.61
2017-12-27T07:56:27.149Z,979.61
2017-12-27T07:57:27.088Z,979.64
2017-12-27T07:58:27.034Z,979.69
2017-12-27T07:59:26.976Z,979.70
2017-12-27T08:00:26.920Z,979.68
2017-12-27T08:01:26.865Z,979.74
2017-12-27T08:02:26.815Z,979.73
2017-12-27T08:03:26.752Z,979.72
2017-12-27T08:04:26.698Z,979.66
2017-12-27T08:05:26.641Z,979.73
2017-12-27T08:06:26.585Z,979.68
2017-12-27T08:07:26.528Z,979.66
2017-12-27T08:08:26.472Z,979.70
2017-12-27T08:09:26.420Z,979.71
2017-12-27T08:10:26.361Z,979.64
2017-12-27T08:11:26.305Z,979.64
2017-12-27T08:12:26.248Z,979.60
2017-12-27T08:13:26.193Z,979.57
2017-12-27T08:14:26.137Z,979.52
2017-12-27T08:15:26.080Z,979.52
2017-12-27T08:16:26.025Z,979.43
2017-12-27T08:17:25.968Z,979.40
2017-12-27T08:18:25.912Z,979.42
2017-12-27T08:19:25.856Z,979.48
2017-12-27T08:20:25.800Z,979.47
2017-12-27T08:21:25.745Z,979.45
2017-12-27T08:22:25.689Z,979.41
2017-12-27T08:23:25.737Z,979.38
2017-12-27T08:24:25.577Z,979.36
2017-12-27T08:25:25.520Z,979.31
2017-12-27T08:26:25.466Z,979.28
2017-12-27T08:27:25.408Z,979.30
2017-12-27T08:28:25.352Z,979.28
2017-12-27T08:29:25.298Z,979.26
2017-12-27T08:30:25.241Z,979.18
2017-12-27T08:31:25.184Z,979.18
2017-12-27T08:32:25.129Z,979.23
2017-12-27T08:33:25.072Z,979.22
2017-12-27T08:34:25.017Z,979.21
2017-12-27T08:35:24.960Z,979.13
2017-12-27T08:36:24.904Z,979.15
2017-12-27T08:37:24.852Z,979.12
2017-12-27T08:38:24.792Z,979.11
2017-12-27T08:39:24.735Z,979.13
2017-12-27T08:40:24.681Z,979.15
2017-12-27T08:41:24.624Z,979.15
2017-12-27T08:42:24.568Z,979.12
2017-12-27T08:43:24.511Z,979.11
2017-12-27T08:44:24.457Z,979.07
2017-12-27T08:45:24.401Z,979.10
2017-12-27T08:46:24.346Z,979.11
2017-12-27T08:47:24.287Z,979.06
2017-12-27T08:48:24.231Z,979.01
2017-12-27T08:49:24.176Z,978.98
2017-12-27T08:50:24.120Z,978.93
2017-12-27T08:51:24.063Z,978.90
2017-12-27T08:52:24.007Z,978.95
2017-12-27T08:53:23.952Z,978.92
2017-12-27T08:54:23.895Z,978.91
2017-12-27T08:55:23.840Z,978.87
2017-12-27T08:56:23.783Z,978.84
2017-12-27T08:57:23.727Z,978.87
2017-12-27T08:58:23.671Z,978.84
2017-12-27T08:59:23.615Z,978.83
2017-12-27T09:00:23.640Z,978.85
2017-12-27T09:01:23.503Z,978.85
2017-12-27T09:02:23.447Z,978.84
2017-12-27T09:03:23.390Z,978.87
2017-12-27T09:04:23.334Z,978.81
2017-12-27T09:05:23.278Z,978.78
2017-12-27T09:06:23.226Z,978.80
2017-12-27T09:07:23.167Z,978.77
2017-12-27T09:08:23.110Z,978.80
2017-12-27T09:09:23.054Z,978.85
2017-12-27T09:10:22.999Z,978.83
2017-12-27T09:11:22.940Z,978.83
2017-12-27T09:12:22.885Z,978.82
2017-12-27T09:13:22.880Z,978.81
2017-12-27T09:14:22.775Z,978.84
2017-12-27T09:15:22.717Z,978.83
2017-12-27T09:16:22.663Z,978.82
2017-12-27T09:17:22.606Z,978.89
2017-12-27T09:18:22.552Z,978.91
2017-12-27T09:19:22.493Z,978.93
2017-12-27T09:20:22.438Z,978.94
2017-12-27T09:21:22.382Z,978.95
2017-12-27T09:22:22.326Z,978.95
2017-12-27T09:23:22.272Z,978.87
2017-12-27T09:24:22.212Z,978.83
2017-12-27T09:25:22.158Z,978.88
2017-12-27T09:27:14.977Z,978.88
2017-12-27T09:28:14.918Z,978.95
2017-12-27T09:29:14.863Z,978.92
2017-12-27T09:30:14.807Z,978.93
2017-12-27T09:31:14.751Z,978.96
2017-12-27T09:32:14.694Z,978.91
2017-12-27T09:33:14.637Z,978.87
2017-12-27T09:34:14.583Z,978.95
2017-12-27T09:35:14.527Z,978.98
2017-12-27T09:36:14.470Z,979.00
2017-12-27T09:37:14.414Z,979.00
2017-12-27T09:38:14.359Z,978.98
2017-12-27T09:39:14.302Z,978.93
2017-12-27T09:40:14.246Z,978.88
2017-12-27T09:41:14.188Z,978.87
2017-12-27T09:42:14.134Z,978.87
2017-12-27T09:43:14.078Z,978.91
2017-12-27T09:44:14.021Z,978.94
2017-12-27T09:45:13.965Z,978.95
2017-12-27T09:46:13.910Z,978.92
2017-12-27T09:47:13.854Z,978.84
2017-12-27T09:48:13.798Z,978.81
2017-12-27T09:49:13.740Z,978.78
2017-12-27T09:50:13.687Z,978.72
2017-12-27T09:51:13.630Z,978.73
2017-12-27T09:52:13.573Z,978.73
2017-12-27T09:53:13.518Z,978.70
2017-12-27T09:54:13.460Z,978.66
2017-12-27T09:55:13.405Z,978.60
2017-12-27T09:56:13.353Z,978.59
2017-12-27T09:57:13.291Z,978.59
2017-12-27T09:58:13.237Z,978.57
2017-12-27T09:59:13.181Z,978.61
2017-12-27T10:00:13.125Z,978.60
2017-12-27T10:01:13.068Z,978.48
2017-12-27T10:02:13.012Z,978.47
2017-12-27T10:03:12.957Z,978.48
2017-12-27T10:04:12.901Z,978.46
2017-12-27T10:05:12.844Z,978.42
2017-12-27T10:06:12.788Z,978.41
2017-12-27T10:07:12.733Z,978.35
2017-12-27T10:08:12.677Z,978.31
2017-12-27T10:09:12.620Z,978.30
2017-12-27T10:10:12.564Z,978.26
2017-12-27T10:11:12.509Z,978.22
2017-12-27T10:12:12.452Z,978.18
2017-12-27T10:13:12.396Z,978.18
2017-12-27T10:14:12.340Z,978.15
2017-12-27T10:15:12.284Z,978.12
2017-12-27T10:16:12.228Z,978.10
2017-12-27T10:17:12.173Z,978.13
2017-12-27T10:18:12.114Z,978.14
2017-12-27T10:19:12.060Z,978.15
2017-12-27T10:20:12.004Z,978.15
2017-12-27T10:21:11.947Z,978.14
2017-12-27T10:22:11.903Z,978.11
2017-12-27T10:23:11.836Z,978.12
2017-12-27T10:24:11.829Z,978.11
2017-12-27T10:25:11.723Z,978.14
2017-12-27T10:26:11.667Z,978.11
2017-12-27T10:27:11.611Z,978.08
2017-12-27T10:28:11.555Z,978.08
2017-12-27T10:29:11.499Z,978.07
2017-12-27T10:30:11.443Z,978.06
2017-12-27T10:31:11.388Z,978.05
2017-12-27T10:32:11.346Z,978.01
2017-12-27T10:33:11.290Z,978.05
2017-12-27T10:34:11.218Z,978.02
2017-12-27T10:35:11.173Z,978.00
2017-12-27T10:36:11.107Z,977.99
2017-12-27T10:37:11.050Z,978.00
2017-12-27T10:38:10.995Z,977.97
2017-12-27T10:39:10.938Z,977.96
2017-12-27T10:40:10.882Z,977.93
2017-12-27T10:41:10.825Z,977.91
2017-12-27T10:42:10.770Z,977.93
2017-12-27T10:43:10.716Z,977.94
2017-12-27T10:44:10.659Z,977.88
2017-12-27T10:45:10.602Z,977.91
2017-12-27T10:46:10.546Z,977.88
2017-12-27T10:47:10.490Z,977.88
2017-12-27T10:48:10.435Z,977.85
2017-12-27T10:49:10.377Z,977.80
2017-12-27T10:50:10.329Z,977.81
2017-12-27T10:51:10.266Z,977.77
2017-12-27T10:52:10.210Z,977.77
2017-12-27T10:53:10.160Z,977.77
2017-12-27T10:54:10.098Z,977.82
2017-12-27T10:55:10.042Z,977.82
2017-12-27T10:56:09.986Z,977.81
2017-12-27T10:57:09.929Z,977.80
2017-12-27T10:58:09.874Z,977.82
2017-12-27T10:59:09.818Z,977.84
2017-12-27T11:00:09.764Z,977.80
2017-12-27T11:01:09.706Z,977.79
2017-12-27T11:02:09.650Z,977.80
2017-12-27T11:03:09.594Z,977.74
2017-12-27T11:04:09.538Z,977.74
2017-12-27T11:05:09.483Z,977.69
2017-12-27T11:06:09.425Z,977.63
2017-12-27T11:07:09.378Z,977.61
2017-12-27T11:08:09.315Z,977.64
2017-12-27T11:09:09.258Z,977.63
2017-12-27T11:10:09.202Z,977.59
2017-12-27T11:11:09.145Z,977.59
2017-12-27T11:12:09.090Z,977.57
2017-12-27T11:13:09.041Z,977.55
2017-12-27T11:14:08.977Z,977.52
2017-12-27T11:15:08.948Z,977.51
2017-12-27T11:16:08.866Z,977.49
2017-12-27T11:17:08.810Z,977.49
2017-12-27T11:18:08.753Z,977.48
2017-12-27T11:19:08.698Z,977.43
2017-12-27T11:20:08.641Z,977.44
2017-12-27T11:21:08.585Z,977.43
2017-12-27T11:22:08.529Z,977.43
2017-12-27T11:23:08.476Z,977.46
2017-12-27T11:24:08.418Z,977.50
2017-12-27T11:25:08.361Z,977.46
2017-12-27T11:26:08.305Z,977.46
2017-12-27T11:27:08.249Z,977.46
2017-12-27T11:28:08.194Z,977.35
2017-12-27T11:29:08.137Z,977.36
2017-12-27T11:30:08.081Z,977.31
2017-12-27T11:31:08.026Z,977.33
2017-12-27T11:32:07.970Z,977.32
2017-12-27T11:33:07.913Z,977.28
2017-12-27T11:34:07.857Z,977.27
2017-12-27T11:35:07.801Z,977.23
2017-12-27T11:36:07.745Z,977.18
2017-12-27T11:37:07.689Z,977.15
2017-12-27T11:38:07.678Z,977.13
2017-12-27T11:39:07.578Z,977.13
2017-12-27T11:40:07.526Z,977.09
2017-12-27T11:41:07.465Z,977.08
2017-12-27T11:42:07.409Z,977.07
2017-12-27T11:43:07.353Z,977.04
2017-12-27T11:44:07.297Z,977.05
2017-12-27T11:45:07.244Z,977.04
2017-12-27T11:46:07.185Z,977.04
2017-12-27T11:47:07.129Z,977.06
2017-12-27T11:48:07.075Z,977.07
2017-12-27T11:49:07.017Z,977.04
2017-12-27T11:50:06.962Z,977.05
2017-12-27T11:51:06.907Z,977.05
2017-12-27T11:52:06.850Z,977.02
2017-12-27T11:53:06.793Z,977.05
2017-12-27T11:54:06.737Z,977.00
2017-12-27T11:55:06.681Z,977.03
2017-12-27T11:56:06.625Z,977.04
2017-12-27T11:57:06.569Z,977.04
2017-12-27T11:58:06.513Z,977.08
2017-12-27T11:59:06.458Z,977.09
2017-12-27T12:00:06.403Z,977.06
2017-12-27T12:01:06.345Z,977.05
2017-12-27T12:02:06.294Z,977.03
2017-12-27T12:03:06.234Z,977.01
2017-12-27T12:04:06.178Z,977.01
2017-12-27T12:05:06.121Z,976.97
2017-12-27T12:06:06.065Z,976.99
2017-12-27T12:07:06.009Z,977.03
2017-12-27T12:08:05.953Z,976.98
2017-12-27T12:09:05.899Z,977.00
2017-12-27T12:10:05.841Z,977.04
2017-12-27T12:11:05.786Z,977.00
2017-12-27T12:12:05.734Z,977.01
2017-12-27T12:13:05.673Z,977.01
2017-12-27T12:14:05.618Z,976.97
2017-12-27T12:15:05.562Z,976.97
2017-12-27T12:16:05.506Z,976.95
2017-12-27T12:17:05.449Z,976.99
2017-12-27T12:18:05.393Z,976.97
2017-12-27T12:19:05.338Z,976.98
2017-12-27T12:20:05.282Z,976.97
2017-12-27T12:21:05.225Z,976.97
2017-12-27T12:22:05.169Z,976.95
2017-12-27T12:23:05.114Z,976.96
2017-12-27T12:24:05.057Z,976.97
2017-12-27T12:25:05.007Z,977.00
2017-12-27T12:26:04.948Z,976.98
2017-12-27T12:27:04.888Z,977.00
2017-12-27T12:28:04.834Z,976.98
2017-12-27T12:29:04.778Z,976.91